Time,TemperatureF,DewpointF,PressureIn,WindDirection,WindDirectionDegrees,WindSpeedMPH,WindSpeedGustMPH,Humidity,HourlyPrecipIn,Conditions,Clouds,dailyrainin,SolarRadiationWatts/m^2,SoftwareType,DateUTC
2013-10-25 00:00:00,40.2,38.6,29.69,East,86,0.0,0.0,94,0.01,-RA,,0.00,0.0,WeatherDisplay:10.37,2013-10-25 08:00:00,
2013-10-25 00:05:00,40.1,38.5,29.69,East,86,0.0,0.0,94,0.01,RA,,0.00,0.0,WeatherDisplay:10.37,2013-10-25 08:05:00,
2013-10-25 00:10:00,40.1,38.5,29.69,East,86,2.3,2.3,94,0.01,OVC,,0.00,0.0,WeatherDisplay:10.37,2013-10-25 08:10:00,
2013-10-25 00:15:00,40.0,38.7,29.69,East,84,1.2,1.2,95,0.00,OVC,,0.00,0.0,WeatherDisplay:10.37,2013-10-25 08:15:00,
2013-10-25 00:20:00,40.0,38.4,29.70,East,84,0.0,0.0,94,0.00,OVC,,0.00,0.0,WeatherDisplay:10.37,2013-10-25 08:20:00,
2013-10-25 00:25:00,39.9,38.3,29.70,East,84,0.0,0.0,94,0.00,OVC,,0.00,0.0,WeatherDisplay:10.37,2013-10-25 08:25:00,
2013-10-25 00:30:00,39.7,38.1,29.70,East,84,1.2,0.0,94,0.00,OVC,,0.00,0.0,WeatherDisplay:10.37,2013-10-25 08:30:00,
2013-10-25 00:35:00,39.5,37.9,29.70,East,84,2.3,2.3,94,0.00,OVC,,0.00,0.0,WeatherDisplay:10.37,2013-10-25 08:35:00,
2013-10-25 00:40:00,39.2,37.6,29.71,East,84,0.0,0.0,94,0.00,OVC,,0.00,0.0,WeatherDisplay:10.37,2013-10-25 08:40:00,
2013-10-25 00:45:00,38.9,37.3,29.71,East,84,1.2,1.2,94,0.00,OVC,,0.00,0.0,WeatherDisplay:10.37,2013-10-25 08:45:00,
2013-10-25 00:50:00,38.7,37.1,29.71,East,84,0.0,0.0,94,0.00,OVC,,0.00,0.0,WeatherDisplay:10.37,2013-10-25 08:50:00,
2013-10-25 00:55:00,38.5,36.9,29.71,East,84,0.0,0.0,94,0.00,OVC,,0.00,0.0,WeatherDisplay:10.37,2013-10-25 08:55:00,
2013-10-25 01:00:00,38.3,36.7,29.71,East,84,0.0,0.0,94,0.00,OVC,,0.00,0.0,WeatherDisplay:10.37,2013-10-25 09:00:00,
2013-10-25 01:05:00,38.0,36.4,29.72,East,84,0.0,0.0,94,0.00,OVC,,0.00,0.0,WeatherDisplay:10.37,2013-10-25 09:05:00,
2013-10-25 01:10:00,37.8,36.2,29.72,East,84,0.0,0.0,94,0.00,OVC,,0.00,0.0,WeatherDisplay:10.37,2013-10-25 09:10:00,
2013-10-25 01:15:00,37.5,35.9,29.72,East,84,1.2,1.2,94,0.00,OVC,,0.00,0.0,WeatherDisplay:10.37,2013-10-25 09:15:00,
2013-10-25 01:20:00,37.3,35.7,29.72,East,84,0.0,0.0,94,0.00,OVC,,0.00,0.0,WeatherDisplay:10.37,2013-10-25 09:20:00,
2013-10-25 01:25:00,37.2,35.6,29.72,East,84,0.0,0.0,94,0.00,OVC,,0.00,0.0,WeatherDisplay:10.37,2013-10-25 09:25:00,
2013-10-25 01:30:00,37.0,35.4,29.72,East,84,0.0,0.0,94,0.00,OVC,,0.00,0.0,WeatherDisplay:10.37,2013-10-25 09:30:00,
2013-10-25 01:35:00,36.8,35.2,29.72,East,84,0.0,0.0,94,0.00,OVC,,0.00,0.0,WeatherDisplay:10.37,2013-10-25 09:35:00,
2013-10-25 01:40:00,36.5,34.9,29.72,East,84,1.2,1.2,94,0.00,OVC,,0.00,0.0,WeatherDisplay:10.37,2013-10-25 09:40:00,
2013-10-25 01:45:00,36.2,34.6,29.72,East,84,0.0,0.0,94,0.00,OVC,,0.00,0.0,WeatherDisplay:10.37,2013-10-25 09:45:00,
2013-10-25 01:50:00,36.0,34.4,29.73,East,84,0.0,0.0,94,0.00,OVC,,0.00,0.0,WeatherDisplay:10.37,2013-10-25 09:50:00,
2013-10-25 01:55:00,35.7,34.1,29.73,East,84,0.0,0.0,94,0.00,OVC,,0.00,0.0,WeatherDisplay:10.37,2013-10-25 09:55:00,
2013-10-25 02:00:00,35.4,33.8,29.73,East,84,1.0,0.0,94,0.00,OVC,,0.00,0.0,WeatherDisplay:10.37,2013-10-25 10:00:00,
2013-10-25 02:05:00,35.1,33.5,29.73,East,84,0.0,0.0,94,0.00,BKN,,0.00,0.0,WeatherDisplay:10.37,2013-10-25 10:05:00,
2013-10-25 02:10:00,34.8,33.2,29.73,East,84,0.0,0.0,94,0.00,BKN,,0.00,0.0,WeatherDisplay:10.37,2013-10-25 10:10:00,
2013-10-25 02:16:00,34.6,33.1,29.73,East,84,0.0,0.0,94,0.00,BKN,,0.00,0.0,WeatherDisplay:10.37,2013-10-25 10:16:00,
2013-10-25 02:21:00,34.3,32.8,29.73,East,84,0.0,0.1,94,0.00,BKN,,0.00,0.0,WeatherDisplay:10.37,2013-10-25 10:21:00,
2013-10-25 02:28:00,34.0,32.5,29.73,East,84,0.0,0.0,94,0.00,BKN,,0.00,0.0,WeatherDisplay:10.37,2013-10-25 10:28:00,
2013-10-25 02:33:00,33.8,32.3,29.73,East,84,0.0,0.0,94,0.00,BKN,,0.00,0.0,WeatherDisplay:10.37,2013-10-25 10:33:00,
2013-10-25 02:38:00,33.6,32.1,29.73,East,84,0.0,0.0,94,0.00,BKN,,0.00,0.0,WeatherDisplay:10.37,2013-10-25 10:38:00,
2013-10-25 02:43:00,33.4,31.9,29.74,East,84,1.2,0.0,94,0.00,BKN,,0.00,0.0,WeatherDisplay:10.37,2013-10-25 10:43:00,
2013-10-25 02:48:00,33.3,32.0,29.74,East,84,1.2,1.2,95,0.00,BKN,,0.00,0.0,WeatherDisplay:10.37,2013-10-25 10:48:00,
2013-10-25 02:53:00,33.2,31.9,29.74,East,84,1.2,0.0,95,0.00,BKN,,0.00,0.0,WeatherDisplay:10.37,2013-10-25 10:53:00,
2013-10-25 02:58:00,33.0,31.7,29.74,East,84,1.2,0.0,95,0.00,BKN,,0.00,0.0,WeatherDisplay:10.37,2013-10-25 10:58:00,
2013-10-25 03:03:00,32.9,31.6,29.74,East,84,0.0,0.0,95,0.00,CLR,,0.00,0.0,WeatherDisplay:10.37,2013-10-25 11:03:00,
2013-10-25 03:08:00,32.8,31.5,29.75,East,84,0.0,0.0,95,0.00,CLR,,0.00,0.0,WeatherDisplay:10.37,2013-10-25 11:08:00,
2013-10-25 03:13:00,32.7,31.4,29.75,East,84,0.0,0.0,95,0.00,CLR,,0.00,0.0,WeatherDisplay:10.37,2013-10-25 11:13:00,
2013-10-25 03:18:00,32.6,31.3,29.75,East,84,0.0,0.0,95,0.00,CLR,,0.00,0.0,WeatherDisplay:10.37,2013-10-25 11:18:00,
2013-10-25 03:23:00,32.5,31.2,29.75,East,84,0.0,0.0,95,0.00,CLR,,0.00,0.0,WeatherDisplay:10.37,2013-10-25 11:23:00,
2013-10-25 03:28:00,32.3,31.0,29.75,East,84,0.0,0.0,95,0.00,CLR,,0.00,0.0,WeatherDisplay:10.37,2013-10-25 11:28:00,
2013-10-25 03:34:00,32.2,30.9,29.75,East,84,0.0,0.0,95,0.00,CLR,,0.00,0.0,WeatherDisplay:10.37,2013-10-25 11:34:00,
2013-10-25 03:39:00,32.2,30.9,29.75,East,84,0.0,0.0,95,0.00,CLR,,0.00,0.0,WeatherDisplay:10.37,2013-10-25 11:39:00,
2013-10-25 03:44:00,32.1,30.8,29.75,East,84,0.0,0.0,95,0.00,CLR,,0.00,0.0,WeatherDisplay:10.37,2013-10-25 11:44:00,
2013-10-25 03:49:00,31.9,30.6,29.75,East,84,0.0,0.0,95,0.00,CLR,,0.00,0.0,WeatherDisplay:10.37,2013-10-25 11:49:00,
2013-10-25 03:54:00,31.8,30.5,29.76,East,84,0.0,0.0,95,0.00,CLR,,0.00,0.0,WeatherDisplay:10.37,2013-10-25 11:54:00,
2013-10-25 03:59:00,31.6,30.3,29.76,East,84,0.0,0.0,95,0.00,CLR,,0.00,0.0,WeatherDisplay:10.37,2013-10-25 11:59:00,
2013-10-25 04:04:00,31.5,30.2,29.76,East,84,0.0,0.0,95,0.00,CLR,,0.00,0.0,WeatherDisplay:10.37,2013-10-25 12:04:00,
2013-10-25 04:09:00,31.4,30.1,29.76,East,84,0.0,0.0,95,0.00,CLR,,0.00,0.0,WeatherDisplay:10.37,2013-10-25 12:09:00,
2013-10-25 04:14:00,31.3,30.0,29.76,East,84,0.0,0.0,95,0.00,CLR,,0.00,0.0,WeatherDisplay:10.37,2013-10-25 12:14:00,
2013-10-25 04:19:00,31.2,29.9,29.76,East,84,0.0,0.0,95,0.00,CLR,,0.00,0.0,WeatherDisplay:10.37,2013-10-25 12:19:00,
2013-10-25 04:25:00,31.1,29.8,29.77,East,84,0.0,0.0,95,0.00,CLR,,0.00,0.0,WeatherDisplay:10.37,2013-10-25 12:25:00,
2013-10-25 04:30:00,31.0,29.7,29.77,East,84,0.0,0.0,95,0.00,CLR,,0.00,0.0,WeatherDisplay:10.37,2013-10-25 12:30:00,
2013-10-25 04:35:00,31.0,29.7,29.77,East,84,0.0,0.0,95,0.00,CLR,,0.00,0.0,WeatherDisplay:10.37,2013-10-25 12:35:00,
2013-10-25 04:40:00,30.9,29.6,29.77,East,84,0.0,0.0,95,0.00,CLR,,0.00,0.0,WeatherDisplay:10.37,2013-10-25 12:40:00,
2013-10-25 04:45:00,30.9,29.9,29.78,East,84,3.5,3.5,96,0.00,CLR,,0.00,0.0,WeatherDisplay:10.37,2013-10-25 12:45:00,
2013-10-25 04:50:00,31.6,30.6,29.78,East,84,1.2,1.2,96,0.00,CLR,,0.00,0.0,WeatherDisplay:10.37,2013-10-25 12:50:00,
2013-10-25 04:55:00,31.8,30.8,29.78,East,84,0.0,0.0,96,0.00,CLR,,0.00,0.0,WeatherDisplay:10.37,2013-10-25 12:55:00,
2013-10-25 05:01:00,31.8,30.8,29.78,East,84,3.5,3.5,96,0.00,FEW,,0.00,0.0,WeatherDisplay:10.37,2013-10-25 13:01:00,
2013-10-25 05:06:00,31.8,30.8,29.78,East,84,0.0,0.0,96,0.00,FEW,,0.00,0.0,WeatherDisplay:10.37,2013-10-25 13:06:00,
2013-10-25 05:11:00,31.8,30.8,29.78,East,84,0.0,0.0,96,0.00,FEW,,0.00,0.0,WeatherDisplay:10.37,2013-10-25 13:11:00,
2013-10-25 05:16:00,31.7,30.7,29.78,East,84,0.0,0.0,96,0.00,FEW,,0.00,0.0,WeatherDisplay:10.37,2013-10-25 13:16:00,
2013-10-25 05:21:00,31.5,30.5,29.79,East,84,1.2,0.0,96,0.00,FEW,,0.00,0.0,WeatherDisplay:10.37,2013-10-25 13:21:00,
2013-10-25 05:26:00,31.4,30.4,29.78,East,84,0.0,0.0,96,0.00,FEW,,0.00,0.0,WeatherDisplay:10.37,2013-10-25 13:26:00,
2013-10-25 05:31:00,31.3,30.3,29.78,East,84,0.0,0.0,96,0.00,FEW,,0.00,0.0,WeatherDisplay:10.37,2013-10-25 13:31:00,
2013-10-25 05:36:00,31.2,30.2,29.79,East,84,1.0,1.0,96,0.00,FEW,,0.00,0.0,WeatherDisplay:10.37,2013-10-25 13:36:00,
2013-10-25 05:41:00,31.0,30.0,29.79,East,84,0.0,0.0,96,0.00,FEW,,0.00,0.0,WeatherDisplay:10.37,2013-10-25 13:41:00,
2013-10-25 05:46:00,30.8,29.8,29.79,East,84,0.0,0.0,96,0.00,FEW,,0.00,0.0,WeatherDisplay:10.37,2013-10-25 13:46:00,
2013-10-25 05:51:00,30.7,29.4,29.79,East,84,0.0,0.0,95,0.00,FEW,,0.00,0.0,WeatherDisplay:10.37,2013-10-25 13:51:00,
2013-10-25 05:57:00,30.6,29.3,29.79,East,84,0.0,0.0,95,0.00,FEW,,0.00,0.0,WeatherDisplay:10.37,2013-10-25 13:57:00,
2013-10-25 06:02:00,30.5,29.5,29.79,East,84,0.0,0.0,96,0.00,CLR,,0.00,0.0,WeatherDisplay:10.37,2013-10-25 14:02:00,
2013-10-25 06:07:00,30.5,29.5,29.80,East,84,0.0,0.0,96,0.00,CLR,,0.00,0.0,WeatherDisplay:10.37,2013-10-25 14:07:00,
2013-10-25 06:12:00,30.5,29.5,29.80,East,84,1.2,1.2,96,0.00,CLR,,0.00,0.0,WeatherDisplay:10.37,2013-10-25 14:12:00,
2013-10-25 06:17:00,30.5,29.5,29.80,East,84,0.0,0.0,96,0.00,CLR,,0.00,0.0,WeatherDisplay:10.37,2013-10-25 14:17:00,
2013-10-25 06:22:00,30.6,29.6,29.80,East,84,0.0,0.0,96,0.00,CLR,,0.00,0.0,WeatherDisplay:10.37,2013-10-25 14:22:00,
2013-10-25 06:27:00,30.7,29.7,29.80,East,84,0.0,0.0,96,0.00,CLR,,0.00,0.0,WeatherDisplay:10.37,2013-10-25 14:27:00,
2013-10-25 06:32:00,30.8,29.8,29.80,East,84,0.0,0.0,96,0.00,CLR,,0.00,0.0,WeatherDisplay:10.37,2013-10-25 14:32:00,
2013-10-25 06:37:00,31.1,30.1,29.81,East,84,1.2,0.0,96,0.00,CLR,,0.00,0.0,WeatherDisplay:10.37,2013-10-25 14:37:00,
2013-10-25 06:42:00,31.2,30.4,29.81,East,84,1.2,1.2,97,0.00,CLR,,0.00,0.0,WeatherDisplay:10.37,2013-10-25 14:42:00,
2013-10-25 06:47:00,31.5,30.7,29.81,East,84,0.0,0.0,97,0.00,CLR,,0.00,0.0,WeatherDisplay:10.37,2013-10-25 14:47:00,
2013-10-25 06:52:00,31.6,30.8,29.81,East,84,0.0,0.0,97,0.00,CLR,,0.00,0.0,WeatherDisplay:10.37,2013-10-25 14:52:00,
2013-10-25 06:57:00,31.5,30.7,29.82,East,84,0.0,0.0,97,0.00,CLR,,0.00,0.0,WeatherDisplay:10.37,2013-10-25 14:57:00,
2013-10-25 07:02:00,31.5,30.5,29.81,East,84,1.2,1.2,96,0.00,CLR,,0.00,0.0,WeatherDisplay:10.37,2013-10-25 15:02:00,
2013-10-25 07:08:00,31.3,30.3,29.82,East,84,1.2,1.2,96,0.00,CLR,,0.00,0.0,WeatherDisplay:10.37,2013-10-25 15:08:00,
2013-10-25 07:13:00,31.3,30.3,29.82,East,84,2.3,2.3,96,0.00,CLR,,0.00,0.0,WeatherDisplay:10.37,2013-10-25 15:13:00,
2013-10-25 07:18:00,31.3,30.3,29.82,East,84,0.0,0.0,96,0.00,FEW,,0.00,0.0,WeatherDisplay:10.37,2013-10-25 15:18:00,
2013-10-25 07:23:00,31.5,30.7,29.82,East,84,0.0,0.0,97,0.00,FEW,,0.00,0.0,WeatherDisplay:10.37,2013-10-25 15:23:00,
2013-10-25 07:28:00,31.7,30.9,29.82,East,84,0.0,0.0,97,0.00,FEW,,0.00,0.0,WeatherDisplay:10.37,2013-10-25 15:28:00,
2013-10-25 07:33:00,31.8,31.0,29.83,East,84,1.2,1.2,97,0.00,FEW,,0.00,0.0,WeatherDisplay:10.37,2013-10-25 15:33:00,
2013-10-25 07:38:00,31.8,31.0,29.83,East,84,1.0,1.0,97,0.00,FEW,,0.00,0.0,WeatherDisplay:10.37,2013-10-25 15:38:00,
2013-10-25 07:43:00,31.9,31.1,29.83,East,84,2.3,0.0,97,0.00,FEW,,0.00,0.0,WeatherDisplay:10.37,2013-10-25 15:43:00,
2013-10-25 07:48:00,32.0,31.2,29.83,East,84,1.2,0.0,97,0.00,FEW,,0.00,0.0,WeatherDisplay:10.37,2013-10-25 15:48:00,
2013-10-25 07:53:00,32.1,31.3,29.84,East,84,0.0,0.0,97,0.00,FEW,,0.00,0.0,WeatherDisplay:10.37,2013-10-25 15:53:00,
2013-10-25 07:58:00,32.1,31.3,29.84,East,84,0.0,0.0,97,0.00,FEW,,0.00,0.0,WeatherDisplay:10.37,2013-10-25 15:58:00,
2013-10-25 08:04:00,32.1,31.3,29.84,East,84,0.0,0.0,97,0.00,FEW,,0.00,0.0,WeatherDisplay:10.37,2013-10-25 16:04:00,
2013-10-25 08:09:00,32.1,31.3,29.84,East,84,0.0,0.0,97,0.00,FEW,,0.00,0.0,WeatherDisplay:10.37,2013-10-25 16:09:00,
2013-10-25 08:14:00,32.2,31.4,29.84,East,84,0.0,0.0,97,0.00,FEW,,0.00,0.0,WeatherDisplay:10.37,2013-10-25 16:14:00,
2013-10-25 08:19:00,32.1,31.3,29.84,East,84,0.0,0.0,97,0.00,BKN,,0.00,0.0,WeatherDisplay:10.37,2013-10-25 16:19:00,
2013-10-25 08:24:00,32.1,31.3,29.84,East,84,0.0,0.0,97,0.00,BKN,,0.00,0.0,WeatherDisplay:10.37,2013-10-25 16:24:00,
2013-10-25 08:29:00,32.1,31.3,29.84,East,84,1.2,1.2,97,0.00,BKN,,0.00,0.0,WeatherDisplay:10.37,2013-10-25 16:29:00,
2013-10-25 08:34:00,32.1,31.3,29.85,East,84,0.0,0.0,97,0.00,BKN,,0.00,0.0,WeatherDisplay:10.37,2013-10-25 16:34:00,
2013-10-25 08:39:00,32.1,31.3,29.85,East,84,0.0,0.0,97,0.00,BKN,,0.00,0.0,WeatherDisplay:10.37,2013-10-25 16:39:00,
2013-10-25 08:44:00,32.1,31.3,29.85,East,84,0.0,0.0,97,0.00,BKN,,0.00,0.0,WeatherDisplay:10.37,2013-10-25 16:44:00,
2013-10-25 08:49:00,32.2,31.4,29.85,East,84,0.0,0.0,97,0.00,BKN,,0.00,0.0,WeatherDisplay:10.37,2013-10-25 16:49:00,
2013-10-25 08:54:00,32.2,31.4,29.85,East,84,0.0,0.0,97,0.00,BKN,,0.00,0.0,WeatherDisplay:10.37,2013-10-25 16:54:00,
2013-10-25 08:59:00,32.2,31.4,29.85,East,84,0.0,0.0,97,0.00,BKN,,0.00,0.0,WeatherDisplay:10.37,2013-10-25 16:59:00,
2013-10-25 09:04:00,32.2,31.4,29.85,East,84,0.0,0.0,97,0.00,OVC,,0.00,0.0,WeatherDisplay:10.37,2013-10-25 17:04:00,
2013-10-25 09:09:00,32.1,31.3,29.86,East,84,0.0,0.0,97,0.00,OVC,,0.00,0.0,WeatherDisplay:10.37,2013-10-25 17:09:00,
2013-10-25 09:14:00,32.0,31.2,29.86,East,84,0.0,0.0,97,0.00,OVC,,0.00,5.0,WeatherDisplay:10.37,2013-10-25 17:14:00,
2013-10-25 09:19:00,32.0,31.0,29.86,East,84,0.0,0.0,96,0.00,OVC,,0.00,9.0,WeatherDisplay:10.37,2013-10-25 17:19:00,
2013-10-25 09:24:00,31.9,30.9,29.86,East,84,0.0,0.0,96,0.00,OVC,,0.00,9.0,WeatherDisplay:10.37,2013-10-25 17:24:00,
2013-10-25 09:29:00,31.8,30.8,29.86,East,84,1.2,0.0,96,0.00,OVC,,0.00,12.0,WeatherDisplay:10.37,2013-10-25 17:29:00,
2013-10-25 09:34:00,31.7,30.7,29.86,East,84,0.0,0.0,96,0.00,OVC,,0.00,16.0,WeatherDisplay:10.37,2013-10-25 17:34:00,
2013-10-25 09:39:00,31.6,30.6,29.86,East,84,0.0,0.0,96,0.00,OVC,,0.00,19.0,WeatherDisplay:10.37,2013-10-25 17:39:00,
2013-10-25 09:44:00,31.5,30.5,29.86,East,84,0.0,0.0,96,0.00,OVC,,0.00,21.0,WeatherDisplay:10.37,2013-10-25 17:44:00,
2013-10-25 09:49:00,31.5,30.5,29.86,East,84,0.0,0.0,96,0.00,OVC,,0.00,23.0,WeatherDisplay:10.37,2013-10-25 17:49:00,
2013-10-25 09:54:00,31.4,30.4,29.87,East,84,0.0,0.0,96,0.00,OVC,,0.00,23.0,WeatherDisplay:10.37,2013-10-25 17:54:00,
2013-10-25 09:59:00,31.4,30.4,29.87,East,84,0.0,0.0,96,0.00,OVC,,0.00,25.0,WeatherDisplay:10.37,2013-10-25 17:59:00,
2013-10-25 10:04:00,31.4,30.4,29.87,East,84,0.0,0.0,96,0.00,BKN,,0.00,28.0,WeatherDisplay:10.37,2013-10-25 18:04:00,
2013-10-25 10:09:00,31.5,30.5,29.87,East,84,0.0,0.0,96,0.00,BKN,,0.00,35.0,WeatherDisplay:10.37,2013-10-25 18:09:00,
2013-10-25 10:14:00,31.6,30.6,29.88,East,84,0.0,0.0,96,0.00,BKN,,0.00,42.0,WeatherDisplay:10.37,2013-10-25 18:14:00,
2013-10-25 10:19:00,31.8,31.0,29.88,East,84,0.0,0.0,97,0.00,BKN,,0.00,42.0,WeatherDisplay:10.37,2013-10-25 18:19:00,
2013-10-25 10:24:00,32.1,31.3,29.88,East,84,1.2,1.2,97,0.00,BKN,,0.00,56.0,WeatherDisplay:10.37,2013-10-25 18:24:00,
2013-10-25 10:29:00,32.2,31.4,29.88,East,84,0.0,0.0,97,0.00,BKN,,0.00,49.0,WeatherDisplay:10.37,2013-10-25 18:29:00,
2013-10-25 10:35:00,32.4,31.6,29.88,East,84,1.0,0.0,97,0.00,BKN,,0.00,54.0,WeatherDisplay:10.37,2013-10-25 18:35:00,
2013-10-25 10:40:00,32.5,31.7,29.88,East,84,1.2,1.2,97,0.00,BKN,,0.00,63.0,WeatherDisplay:10.37,2013-10-25 18:40:00,
2013-10-25 10:46:00,32.7,31.9,29.89,East,84,1.2,0.0,97,0.00,BKN,,0.00,81.0,WeatherDisplay:10.37,2013-10-25 18:46:00,
2013-10-25 10:51:00,32.9,32.1,29.89,WNW,285,0.0,0.0,97,0.00,BKN,,0.00,104.0,WeatherDisplay:10.37,2013-10-25 18:51:00,
2013-10-25 10:56:00,33.5,32.7,29.89,NNE,24,4.6,4.6,97,0.00,BKN,,0.00,70.0,WeatherDisplay:10.37,2013-10-25 18:56:00,
2013-10-25 11:01:00,34.2,33.4,29.90,NNE,24,2.3,2.3,97,0.00,SCT,,0.00,83.0,WeatherDisplay:10.37,2013-10-25 19:01:00,
2013-10-25 11:06:00,34.6,33.8,29.89,NNE,24,2.3,2.3,97,0.00,SCT,,0.00,134.0,WeatherDisplay:10.37,2013-10-25 19:06:00,
2013-10-25 11:11:00,34.8,34.3,29.89,ENE,60,3.5,3.5,98,0.00,SCT,,0.00,90.0,WeatherDisplay:10.37,2013-10-25 19:11:00,
2013-10-25 11:16:00,35.2,34.4,29.90,East,101,3.5,3.5,97,0.00,SCT,,0.00,77.0,WeatherDisplay:10.37,2013-10-25 19:16:00,
2013-10-25 11:21:00,35.5,35.0,29.90,East,101,0.0,0.0,98,0.00,SCT,,0.00,83.0,WeatherDisplay:10.37,2013-10-25 19:21:00,
2013-10-25 11:26:00,35.6,34.8,29.91,East,101,2.3,2.3,97,0.00,SCT,,0.00,86.0,WeatherDisplay:10.37,2013-10-25 19:26:00,
2013-10-25 11:31:00,35.7,34.9,29.90,East,101,1.2,1.2,97,0.00,SCT,,0.00,123.0,WeatherDisplay:10.37,2013-10-25 19:31:00,
2013-10-25 11:36:00,36.0,35.2,29.90,East,101,1.2,1.2,97,0.00,SCT,,0.00,128.0,WeatherDisplay:10.37,2013-10-25 19:36:00,
2013-10-25 11:41:00,36.2,35.4,29.91,East,101,1.2,1.2,97,0.00,SCT,,0.00,105.0,WeatherDisplay:10.37,2013-10-25 19:41:00,
2013-10-25 11:46:00,36.5,35.7,29.90,East,101,1.2,1.2,97,0.00,SCT,,0.00,76.0,WeatherDisplay:10.37,2013-10-25 19:46:00,
2013-10-25 11:51:00,36.7,35.9,29.91,East,101,1.2,1.2,97,0.00,SCT,,0.00,65.0,WeatherDisplay:10.37,2013-10-25 19:51:00,
2013-10-25 11:56:00,36.9,36.1,29.91,East,101,2.3,0.0,97,0.00,SCT,,0.00,79.0,WeatherDisplay:10.37,2013-10-25 19:56:00,
2013-10-25 12:01:00,37.1,36.3,29.91,East,101,0.0,0.0,97,0.00,BKN,,0.00,120.0,WeatherDisplay:10.37,2013-10-25 20:01:00,
2013-10-25 12:06:00,37.4,36.4,29.91,East,101,0.0,0.0,96,0.00,BKN,,0.00,84.0,WeatherDisplay:10.37,2013-10-25 20:06:00,
2013-10-25 12:14:00,37.8,37.0,29.92,East,101,3.5,3.5,97,0.00,BKN,,0.00,83.0,WeatherDisplay:10.37,2013-10-25 20:14:00,
2013-10-25 12:19:00,38.3,37.3,29.92,NE,51,3.5,3.5,96,0.00,BKN,,0.00,132.0,WeatherDisplay:10.37,2013-10-25 20:19:00,
2013-10-25 12:24:00,38.6,37.3,29.92,NE,51,0.0,0.0,95,0.00,BKN,,0.00,97.0,WeatherDisplay:10.37,2013-10-25 20:24:00,
2013-10-25 12:29:00,38.9,37.6,29.92,NE,51,2.3,0.0,95,0.00,BKN,,0.00,109.0,WeatherDisplay:10.37,2013-10-25 20:29:00,
2013-10-25 12:34:00,39.1,37.8,29.92,NE,51,1.2,1.2,95,0.00,BKN,,0.00,165.0,WeatherDisplay:10.37,2013-10-25 20:34:00,
2013-10-25 12:39:00,39.5,37.9,29.92,NE,51,3.5,3.5,94,0.00,BKN,,0.00,246.0,WeatherDisplay:10.37,2013-10-25 20:39:00,
2013-10-25 12:44:00,40.0,38.1,29.92,NE,51,2.3,2.3,93,0.00,BKN,,0.00,104.0,WeatherDisplay:10.37,2013-10-25 20:44:00,
2013-10-25 12:49:00,40.3,37.9,29.92,NE,51,2.3,2.3,91,0.00,BKN,,0.00,127.0,WeatherDisplay:10.37,2013-10-25 20:49:00,
2013-10-25 12:54:00,40.6,38.2,29.92,NE,51,1.2,1.2,91,0.00,BKN,,0.00,128.0,WeatherDisplay:10.37,2013-10-25 20:54:00,
2013-10-25 12:59:00,41.0,38.6,29.93,NE,51,1.2,1.2,91,0.00,BKN,,0.00,176.0,WeatherDisplay:10.37,2013-10-25 20:59:00,
2013-10-25 13:04:00,41.4,38.7,29.93,NE,51,2.3,2.3,90,0.00,BKN,,0.00,211.0,WeatherDisplay:10.37,2013-10-25 21:04:00,
2013-10-25 13:10:00,41.9,38.6,29.93,ENE,61,3.0,3.0,88,0.00,BKN,,0.00,158.0,WeatherDisplay:10.37,2013-10-25 21:10:00,
2013-10-25 13:15:00,42.3,38.7,29.94,ENE,61,1.2,1.2,87,0.00,BKN,,0.00,135.0,WeatherDisplay:10.37,2013-10-25 21:15:00,
2013-10-25 13:20:00,42.5,38.3,29.94,ENE,61,1.2,1.2,85,0.00,BKN,,0.00,135.0,WeatherDisplay:10.37,2013-10-25 21:20:00,
2013-10-25 13:25:00,42.6,38.1,29.94,ENE,61,2.0,2.0,84,0.00,BKN,,0.00,125.0,WeatherDisplay:10.37,2013-10-25 21:25:00,
2013-10-25 13:30:00,42.8,38.3,29.94,ENE,61,2.3,2.3,84,0.00,BKN,,0.00,109.0,WeatherDisplay:10.37,2013-10-25 21:30:00,
2013-10-25 13:35:00,42.8,38.3,29.94,ENE,61,3.5,3.5,84,0.00,BKN,,0.00,109.0,WeatherDisplay:10.37,2013-10-25 21:35:00,
2013-10-25 13:40:00,42.9,38.4,29.94,ENE,61,2.3,2.3,84,0.00,BKN,,0.00,142.0,WeatherDisplay:10.37,2013-10-25 21:40:00,
2013-10-25 13:45:00,43.1,38.6,29.94,East,94,3.5,3.5,84,0.00,BKN,,0.00,151.0,WeatherDisplay:10.37,2013-10-25 21:45:00,
2013-10-25 13:50:00,43.3,38.5,29.94,East,96,4.6,4.6,83,0.00,BKN,,0.00,146.0,WeatherDisplay:10.37,2013-10-25 21:50:00,
2013-10-25 13:55:00,43.4,38.6,29.94,East,94,4.6,4.6,83,0.00,BKN,,0.00,132.0,WeatherDisplay:10.37,2013-10-25 21:55:00,
2013-10-25 14:00:00,43.6,38.2,29.94,East,96,3.5,3.5,81,0.00,BKN,,0.00,114.0,WeatherDisplay:10.37,2013-10-25 22:00:00,
2013-10-25 14:05:00,43.7,38.6,29.94,East,96,1.2,0.0,82,0.00,OVC,,0.00,142.0,WeatherDisplay:10.37,2013-10-25 22:05:00,
2013-10-25 14:10:00,43.9,38.8,29.94,East,93,2.3,2.3,82,0.00,OVC,,0.00,130.0,WeatherDisplay:10.37,2013-10-25 22:10:00,
2013-10-25 14:15:00,44.2,38.4,29.94,ENE,59,5.8,5.8,80,0.00,OVC,,0.00,77.0,WeatherDisplay:10.37,2013-10-25 22:15:00,
2013-10-25 14:20:00,44.6,38.5,29.94,ESE,109,5.8,5.8,79,0.00,OVC,,0.00,134.0,WeatherDisplay:10.37,2013-10-25 22:20:00,
2013-10-25 14:25:00,45.0,38.6,29.94,East,81,3.5,3.5,78,0.00,OVC,,0.00,114.0,WeatherDisplay:10.37,2013-10-25 22:25:00,
2013-10-25 14:30:00,45.3,38.5,29.94,East,100,5.0,5.0,77,0.00,OVC,,0.00,104.0,WeatherDisplay:10.37,2013-10-25 22:30:00,
2013-10-25 14:35:00,45.6,38.5,29.95,NE,51,6.0,6.0,76,0.00,OVC,,0.00,74.0,WeatherDisplay:10.37,2013-10-25 22:35:00,
2013-10-25 14:40:00,45.8,38.0,29.94,ENE,73,3.5,3.5,74,0.00,OVC,,0.00,65.0,WeatherDisplay:10.37,2013-10-25 22:40:00,
2013-10-25 14:45:00,45.9,38.4,29.94,ENE,73,1.2,1.2,75,0.00,OVC,,0.00,62.0,WeatherDisplay:10.37,2013-10-25 22:45:00,
2013-10-25 14:51:00,45.9,38.1,29.95,East,88,5.0,5.0,74,0.00,OVC,,0.00,62.0,WeatherDisplay:10.37,2013-10-25 22:51:00,
2013-10-25 14:56:00,45.9,38.1,29.95,ENE,60,3.5,3.5,74,0.00,OVC,,0.00,58.0,WeatherDisplay:10.37,2013-10-25 22:56:00,
2013-10-25 15:01:00,45.9,37.7,29.95,East,92,3.5,3.5,73,0.00,OVC,,0.00,56.0,WeatherDisplay:10.37,2013-10-25 23:01:00,
2013-10-25 15:07:00,46.0,37.5,29.95,East,92,3.5,3.5,72,0.00,OVC,,0.00,69.0,WeatherDisplay:10.37,2013-10-25 23:07:00,
2013-10-25 15:12:00,46.0,38.2,29.95,East,92,2.3,2.3,74,0.00,OVC,,0.00,77.0,WeatherDisplay:10.37,2013-10-25 23:12:00,
2013-10-25 15:17:00,46.1,38.3,29.95,East,92,1.2,1.2,74,0.00,OVC,,0.00,100.0,WeatherDisplay:10.37,2013-10-25 23:17:00,
2013-10-25 15:22:00,46.1,37.6,29.95,East,92,2.3,2.3,72,0.00,OVC,,0.00,98.0,WeatherDisplay:10.37,2013-10-25 23:22:00,
2013-10-25 15:27:00,46.2,38.4,29.96,East,92,1.2,1.2,74,0.00,OVC,,0.00,49.0,WeatherDisplay:10.37,2013-10-25 23:27:00,
2013-10-25 15:32:00,46.1,38.3,29.96,East,92,0.0,0.0,74,0.00,FEW,,0.00,42.0,WeatherDisplay:10.37,2013-10-25 23:32:00,
2013-10-25 15:37:00,46.0,38.5,29.96,East,92,0.0,0.0,75,0.00,FEW,,0.00,54.0,WeatherDisplay:10.37,2013-10-25 23:37:00,
2013-10-25 15:42:00,45.9,39.4,29.96,East,92,0.0,0.1,78,0.00,FEW,,0.00,76.0,WeatherDisplay:10.37,2013-10-25 23:42:00,
2013-10-25 15:47:00,45.8,39.7,29.96,East,92,1.2,1.2,79,0.00,FEW,,0.00,88.0,WeatherDisplay:10.37,2013-10-25 23:47:00,
2013-10-25 15:52:00,45.7,39.6,29.96,East,92,0.0,0.0,79,0.00,FEW,,0.00,72.0,WeatherDisplay:10.37,2013-10-25 23:52:00,
2013-10-25 15:57:00,45.6,39.5,29.96,East,92,1.0,1.0,79,0.00,FEW,,0.00,74.0,WeatherDisplay:10.37,2013-10-25 23:57:00,
2013-10-25 16:02:00,45.5,40.0,29.96,East,92,0.0,0.0,81,0.00,OVC,,0.00,79.0,WeatherDisplay:10.37,2013-10-26 00:02:00,
2013-10-25 16:07:00,45.4,39.9,29.96,East,92,0.0,0.0,81,0.00,OVC,,0.00,76.0,WeatherDisplay:10.37,2013-10-26 00:07:00,
2013-10-25 16:12:00,45.3,40.1,29.96,East,92,0.0,0.0,82,0.00,OVC,,0.00,69.0,WeatherDisplay:10.37,2013-10-26 00:12:00,
2013-10-25 16:18:00,45.1,39.6,29.96,East,92,0.0,0.0,81,0.00,OVC,,0.00,67.0,WeatherDisplay:10.37,2013-10-26 00:18:00,
2013-10-25 16:23:00,45.0,39.8,29.96,East,92,0.0,0.0,82,0.00,OVC,,0.00,70.0,WeatherDisplay:10.37,2013-10-26 00:23:00,
2013-10-25 16:28:00,44.9,40.0,29.96,East,92,0.0,0.0,83,0.00,OVC,,0.00,77.0,WeatherDisplay:10.37,2013-10-26 00:28:00,
2013-10-25 16:33:00,44.8,40.0,29.96,East,92,1.2,1.2,83,0.00,OVC,,0.00,81.0,WeatherDisplay:10.37,2013-10-26 00:33:00,
2013-10-25 16:38:00,44.8,39.0,29.97,East,92,1.2,0.0,80,0.00,OVC,,0.00,90.0,WeatherDisplay:10.37,2013-10-26 00:38:00,
2013-10-25 16:43:00,44.9,39.7,29.97,East,92,0.0,0.0,82,0.00,OVC,,0.00,84.0,WeatherDisplay:10.37,2013-10-26 00:43:00,
2013-10-25 16:48:00,45.0,39.8,29.97,East,92,0.0,0.0,82,0.00,OVC,,0.00,81.0,WeatherDisplay:10.37,2013-10-26 00:48:00,
2013-10-25 16:53:00,45.0,39.8,29.97,East,92,0.0,0.0,82,0.00,OVC,,0.00,86.0,WeatherDisplay:10.37,2013-10-26 00:53:00,
2013-10-25 16:58:00,45.1,39.9,29.98,East,92,1.2,1.2,82,0.00,OVC,,0.00,72.0,WeatherDisplay:10.37,2013-10-26 00:58:00,
2013-10-25 17:03:00,45.1,39.6,29.98,East,92,1.2,0.0,81,0.00,FEW,,0.00,77.0,WeatherDisplay:10.37,2013-10-26 01:03:00,
2013-10-25 17:08:00,45.3,40.1,29.97,East,92,1.2,1.2,82,0.00,FEW,,0.00,70.0,WeatherDisplay:10.37,2013-10-26 01:08:00,
2013-10-25 17:13:00,45.4,40.2,29.98,East,92,2.3,2.3,82,0.00,FEW,,0.00,54.0,WeatherDisplay:10.37,2013-10-26 01:13:00,
2013-10-25 17:18:00,45.4,39.3,29.98,East,92,1.2,0.0,79,0.00,FEW,,0.00,33.0,WeatherDisplay:10.37,2013-10-26 01:18:00,
2013-10-25 17:23:00,45.4,39.3,29.99,East,92,0.0,0.0,79,0.00,FEW,,0.00,25.0,WeatherDisplay:10.37,2013-10-26 01:23:00,
2013-10-25 17:28:00,45.4,39.3,29.99,East,92,0.0,0.0,79,0.00,FEW,,0.00,28.0,WeatherDisplay:10.37,2013-10-26 01:28:00,
2013-10-25 17:33:00,45.3,39.5,29.99,East,92,0.0,0.0,80,0.00,FEW,,0.00,33.0,WeatherDisplay:10.37,2013-10-26 01:33:00,
2013-10-25 17:38:00,45.2,39.7,29.99,East,92,0.0,0.0,81,0.00,FEW,,0.00,35.0,WeatherDisplay:10.37,2013-10-26 01:38:00,
2013-10-25 17:43:00,45.1,39.9,30.00,East,92,0.0,0.0,82,0.00,FEW,,0.00,33.0,WeatherDisplay:10.37,2013-10-26 01:43:00,
2013-10-25 17:48:00,44.9,40.0,30.00,East,92,0.0,0.0,83,0.00,FEW,,0.00,28.0,WeatherDisplay:10.37,2013-10-26 01:48:00,
2013-10-25 17:53:00,44.7,40.2,30.00,East,92,0.0,0.0,84,0.00,FEW,,0.00,26.0,WeatherDisplay:10.37,2013-10-26 01:53:00,
2013-10-25 17:58:00,44.5,40.3,30.00,East,92,0.0,0.0,85,0.00,FEW,,0.00,25.0,WeatherDisplay:10.37,2013-10-26 01:58:00,
2013-10-25 18:03:00,44.3,40.1,30.00,East,92,0.0,0.0,85,0.00,OVC,,0.00,19.0,WeatherDisplay:10.37,2013-10-26 02:03:00,
2013-10-25 18:08:00,44.0,39.5,30.00,East,92,0.0,0.0,84,0.00,OVC,,0.00,14.0,WeatherDisplay:10.37,2013-10-26 02:08:00,
2013-10-25 18:13:00,43.8,39.6,30.01,East,92,0.0,0.0,85,0.00,OVC,,0.00,11.0,WeatherDisplay:10.37,2013-10-26 02:13:00,
2013-10-25 18:18:00,43.6,39.1,30.01,East,92,0.0,0.0,84,0.00,OVC,,0.00,9.0,WeatherDisplay:10.37,2013-10-26 02:18:00,
2013-10-25 18:23:00,43.4,39.2,30.00,East,92,0.0,0.0,85,0.00,OVC,,0.00,5.0,WeatherDisplay:10.37,2013-10-26 02:23:00,
2013-10-25 18:28:00,43.2,39.0,30.01,East,92,0.0,0.0,85,0.00,OVC,,0.00,0.0,WeatherDisplay:10.37,2013-10-26 02:28:00,
2013-10-25 18:33:00,43.0,38.8,30.01,East,92,0.0,0.0,85,0.00,OVC,,0.00,0.0,WeatherDisplay:10.37,2013-10-26 02:33:00,
2013-10-25 18:38:00,42.8,38.6,30.01,East,92,0.0,0.0,85,0.00,OVC,,0.00,0.0,WeatherDisplay:10.37,2013-10-26 02:38:00,
2013-10-25 18:43:00,42.4,38.8,30.02,East,92,0.0,0.0,87,0.00,OVC,,0.00,0.0,WeatherDisplay:10.37,2013-10-26 02:43:00,
2013-10-25 18:48:00,42.1,38.5,30.02,East,92,0.0,0.0,87,0.00,OVC,,0.00,0.0,WeatherDisplay:10.37,2013-10-26 02:48:00,
2013-10-25 18:53:00,41.8,38.5,30.01,East,92,0.0,0.0,88,0.00,OVC,,0.00,0.0,WeatherDisplay:10.37,2013-10-26 02:53:00,
2013-10-25 18:58:00,41.6,38.3,30.02,East,92,0.0,0.0,88,0.00,OVC,,0.00,0.0,WeatherDisplay:10.37,2013-10-26 02:58:00,
2013-10-25 19:03:00,41.4,38.4,30.02,East,92,0.0,0.0,89,0.00,OVC,,0.00,0.0,WeatherDisplay:10.37,2013-10-26 03:03:00,
2013-10-25 19:08:00,41.2,38.2,30.03,East,92,0.0,0.0,89,0.00,OVC,,0.00,0.0,WeatherDisplay:10.37,2013-10-26 03:08:00,
2013-10-25 19:13:00,41.0,38.0,30.03,East,92,0.0,0.0,89,0.00,OVC,,0.00,0.0,WeatherDisplay:10.37,2013-10-26 03:13:00,
2013-10-25 19:18:00,40.8,37.8,30.04,East,92,0.0,0.0,89,0.00,OVC,,0.00,0.0,WeatherDisplay:10.37,2013-10-26 03:18:00,
2013-10-25 19:23:00,40.7,37.7,30.04,East,92,0.0,0.0,89,0.00,OVC,,0.00,0.0,WeatherDisplay:10.37,2013-10-26 03:23:00,
2013-10-25 19:28:00,40.5,37.5,30.04,East,92,0.0,0.0,89,0.00,OVC,,0.00,0.0,WeatherDisplay:10.37,2013-10-26 03:28:00,
2013-10-25 19:33:00,40.4,37.4,30.04,East,92,0.0,0.0,89,0.00,OVC,,0.00,0.0,WeatherDisplay:10.37,2013-10-26 03:33:00,
2013-10-25 19:38:00,40.2,37.2,30.04,East,92,0.0,0.0,89,0.00,OVC,,0.00,0.0,WeatherDisplay:10.37,2013-10-26 03:38:00,
2013-10-25 19:43:00,40.0,37.0,30.04,East,92,0.0,0.0,89,0.00,OVC,,0.00,0.0,WeatherDisplay:10.37,2013-10-26 03:43:00,
2013-10-25 19:48:00,39.7,37.0,30.05,East,92,0.0,0.0,90,0.00,OVC,,0.00,0.0,WeatherDisplay:10.37,2013-10-26 03:48:00,
2013-10-25 19:53:00,39.5,36.8,30.05,East,92,0.0,0.0,90,0.00,OVC,,0.00,0.0,WeatherDisplay:10.37,2013-10-26 03:53:00,
2013-10-25 19:58:00,39.2,36.5,30.05,East,92,0.0,0.0,90,0.00,OVC,,0.00,0.0,WeatherDisplay:10.37,2013-10-26 03:58:00,
2013-10-25 20:01:00,39.1,36.4,30.05,East,92,0.0,0.0,90,0.00,BKN,,0.00,0.0,WeatherDisplay:10.37,2013-10-26 04:01:00,
2013-10-25 20:04:00,38.9,36.2,30.05,East,92,0.0,0.0,90,0.00,BKN,,0.00,0.0,WeatherDisplay:10.37,2013-10-26 04:04:00,
2013-10-25 20:09:00,38.7,36.0,30.06,East,92,0.0,0.0,90,0.00,BKN,,0.00,0.0,WeatherDisplay:10.37,2013-10-26 04:09:00,
2013-10-25 20:14:00,38.5,35.8,30.06,East,92,0.0,0.0,90,0.00,BKN,,0.00,0.0,WeatherDisplay:10.37,2013-10-26 04:14:00,
2013-10-25 20:19:00,38.2,35.5,30.07,East,92,0.0,0.0,90,0.00,BKN,,0.00,0.0,WeatherDisplay:10.37,2013-10-26 04:19:00,
2013-10-25 20:24:00,38.0,35.6,30.07,East,92,0.0,0.0,91,0.00,BKN,,0.00,0.0,WeatherDisplay:10.37,2013-10-26 04:24:00,
2013-10-25 20:29:00,37.7,35.3,30.06,East,92,0.0,0.0,91,0.00,BKN,,0.00,0.0,WeatherDisplay:10.37,2013-10-26 04:29:00,
2013-10-25 20:34:00,37.5,35.1,30.07,East,92,1.2,0.0,91,0.00,BKN,,0.00,0.0,WeatherDisplay:10.37,2013-10-26 04:34:00,
2013-10-25 20:39:00,37.2,34.8,30.07,East,92,2.3,2.3,91,0.00,BKN,,0.00,0.0,WeatherDisplay:10.37,2013-10-26 04:39:00,
2013-10-25 20:44:00,37.0,34.9,30.07,East,92,1.2,1.2,92,0.00,BKN,,0.00,0.0,WeatherDisplay:10.37,2013-10-26 04:44:00,
2013-10-25 20:49:00,37.0,34.9,30.08,East,92,1.2,0.0,92,0.00,BKN,,0.00,0.0,WeatherDisplay:10.37,2013-10-26 04:49:00,
2013-10-25 20:54:00,36.9,34.8,30.08,East,92,1.2,1.2,92,0.00,BKN,,0.00,0.0,WeatherDisplay:10.37,2013-10-26 04:54:00,
2013-10-25 20:59:00,36.8,35.0,30.08,East,92,0.0,0.0,93,0.00,BKN,,0.00,0.0,WeatherDisplay:10.37,2013-10-26 04:59:00,
2013-10-25 21:04:00,36.6,34.5,30.09,East,92,0.0,0.0,92,0.00,SCT,,0.00,0.0,WeatherDisplay:10.37,2013-10-26 05:04:00,
2013-10-25 21:09:00,36.5,34.4,30.09,East,92,0.0,0.0,92,0.00,SCT,,0.00,0.0,WeatherDisplay:10.37,2013-10-26 05:09:00,
2013-10-25 21:14:00,36.3,34.5,30.09,East,92,0.0,0.0,93,0.00,SCT,,0.00,0.0,WeatherDisplay:10.37,2013-10-26 05:14:00,
2013-10-25 21:19:00,36.2,34.4,30.09,East,92,0.0,0.0,93,0.00,SCT,,0.00,0.0,WeatherDisplay:10.37,2013-10-26 05:19:00,
2013-10-25 21:24:00,35.9,33.8,30.09,East,92,0.0,0.0,92,0.00,SCT,,0.00,0.0,WeatherDisplay:10.37,2013-10-26 05:24:00,
2013-10-25 21:29:00,35.7,33.6,30.10,East,92,1.2,1.2,92,0.00,SCT,,0.00,0.0,WeatherDisplay:10.37,2013-10-26 05:29:00,
2013-10-25 21:34:00,35.5,33.7,30.10,East,92,0.0,0.0,93,0.00,SCT,,0.00,0.0,WeatherDisplay:10.37,2013-10-26 05:34:00,
2013-10-25 21:39:00,35.3,33.2,30.10,East,92,0.0,0.0,92,0.00,SCT,,0.00,0.0,WeatherDisplay:10.37,2013-10-26 05:39:00,
2013-10-25 21:44:00,35.1,33.0,30.10,East,92,0.0,0.0,92,0.00,SCT,,0.00,0.0,WeatherDisplay:10.37,2013-10-26 05:44:00,
2013-10-25 21:49:00,34.8,33.0,30.11,East,92,0.0,0.0,93,0.00,SCT,,0.00,0.0,WeatherDisplay:10.37,2013-10-26 05:49:00,
2013-10-25 21:54:00,34.6,32.8,30.11,East,92,1.2,1.2,93,0.00,SCT,,0.00,0.0,WeatherDisplay:10.37,2013-10-26 05:54:00,
2013-10-25 21:59:00,34.5,32.7,30.11,East,92,0.0,0.0,93,0.00,SCT,,0.00,0.0,WeatherDisplay:10.37,2013-10-26 05:59:00,
2013-10-25 22:04:00,34.3,32.5,30.11,East,92,0.0,0.0,93,0.00,CLR,,0.00,0.0,WeatherDisplay:10.37,2013-10-26 06:04:00,
2013-10-25 22:09:00,34.1,32.3,30.11,East,92,0.0,0.0,93,0.00,CLR,,0.00,0.0,WeatherDisplay:10.37,2013-10-26 06:09:00,
2013-10-25 22:14:00,33.8,32.0,30.12,East,92,0.0,0.0,93,0.00,CLR,,0.00,0.0,WeatherDisplay:10.37,2013-10-26 06:14:00,
2013-10-25 22:19:00,33.6,31.8,30.12,East,92,0.0,0.0,93,0.00,CLR,,0.00,0.0,WeatherDisplay:10.37,2013-10-26 06:19:00,
2013-10-25 22:24:00,33.4,31.6,30.12,East,92,0.0,0.0,93,0.00,CLR,,0.00,0.0,WeatherDisplay:10.37,2013-10-26 06:24:00,
2013-10-25 22:29:00,33.2,31.4,30.13,East,92,0.0,0.0,93,0.00,CLR,,0.00,0.0,WeatherDisplay:10.37,2013-10-26 06:29:00,
2013-10-25 22:34:00,33.1,31.6,30.14,East,92,0.0,0.0,94,0.00,CLR,,0.00,0.0,WeatherDisplay:10.37,2013-10-26 06:34:00,
2013-10-25 22:39:00,33.0,31.5,30.14,East,92,0.0,0.0,94,0.00,CLR,,0.00,0.0,WeatherDisplay:10.37,2013-10-26 06:39:00,
2013-10-25 22:44:00,32.8,31.3,30.14,East,92,0.0,0.0,94,0.00,CLR,,0.00,0.0,WeatherDisplay:10.37,2013-10-26 06:44:00,
2013-10-25 22:49:00,32.7,31.2,30.14,East,92,0.0,0.0,94,0.00,CLR,,0.00,0.0,WeatherDisplay:10.37,2013-10-26 06:49:00,
2013-10-25 22:54:00,32.5,31.0,30.14,East,92,0.0,0.0,94,0.00,CLR,,0.00,0.0,WeatherDisplay:10.37,2013-10-26 06:54:00,
2013-10-25 22:59:00,32.3,30.8,30.14,East,92,0.0,0.0,94,0.00,CLR,,0.00,0.0,WeatherDisplay:10.37,2013-10-26 06:59:00,
2013-10-25 23:04:00,32.1,30.6,30.14,East,92,1.2,0.0,94,0.00,CLR,,0.00,0.0,WeatherDisplay:10.37,2013-10-26 07:04:00,
2013-10-25 23:09:00,31.9,31.9,30.14,East,92,0.0,0.0,100,0.00,CLR,,0.00,0.0,WeatherDisplay:10.37,2013-10-26 07:09:00,
2013-10-25 23:14:00,31.8,30.3,30.15,East,92,0.0,0.0,94,0.00,CLR,,0.00,0.0,WeatherDisplay:10.37,2013-10-26 07:14:00,
2013-10-25 23:19:00,31.6,30.1,30.15,East,92,0.0,0.0,94,0.00,CLR,,0.00,0.0,WeatherDisplay:10.37,2013-10-26 07:19:00,
2013-10-25 23:24:00,31.5,30.0,30.15,East,92,0.0,0.0,94,0.00,CLR,,0.00,0.0,WeatherDisplay:10.37,2013-10-26 07:24:00,
2013-10-25 23:29:00,31.4,29.9,30.15,East,92,0.0,0.0,94,0.00,CLR,,0.00,0.0,WeatherDisplay:10.37,2013-10-26 07:29:00,
2013-10-25 23:34:00,31.3,29.8,30.16,East,92,1.2,1.2,94,0.00,CLR,,0.00,0.0,WeatherDisplay:10.37,2013-10-26 07:34:00,
2013-10-25 23:39:00,31.2,29.7,30.16,East,92,0.0,0.0,94,0.00,CLR,,0.00,0.0,WeatherDisplay:10.37,2013-10-26 07:39:00,
2013-10-25 23:44:00,31.1,29.6,30.16,East,92,1.2,1.2,94,0.00,CLR,,0.00,0.0,WeatherDisplay:10.37,2013-10-26 07:44:00,
2013-10-25 23:49:00,31.1,29.8,30.17,East,92,1.2,0.0,95,0.00,CLR,,0.00,0.0,WeatherDisplay:10.37,2013-10-26 07:49:00,
2013-10-25 23:54:00,31.0,29.7,30.17,East,92,1.2,1.2,95,0.00,CLR,,0.00,0.0,WeatherDisplay:10.37,2013-10-26 07:54:00,
2013-10-25 23:59:00,30.9,29.6,30.17,East,92,0.0,0.0,95,0.00,CLR,,0.00,0.0,WeatherDisplay:10.37,2013-10-26 07:59:00,